Time;durP1;ratioP1;P1;durP2;ratioP2;P2;SDS_P1;SDS_P2;PMS_P1;PMS_P2;Temp;Humidity;BMP_temperature;BMP_pressure;BME280_temperature;BME280_humidity;BME280_pressure;Samples;Min_cycle;Max_cycle;Signal;HPM_P1;HPM_P2
2021/05/31 00:03:35;;;;;;;12.27;3.10;;;21.50;60.00;;;;;;11995198;28;20126;-78
2021/05/31 00:09:22;;;;;;;5.45;3.38;;;21.50;59.90;;;;;;11995928;28;20061;-77
2021/05/31 00:15:09;;;;;;;4.10;3.10;;;21.50;60.40;;;;;;11995446;28;20045;-77
2021/05/31 00:20:56;;;;;;;5.63;3.13;;;21.50;60.40;;;;;;11992594;28;20053;-77
2021/05/31 00:26:43;;;;;;;7.72;3.35;;;21.50;60.10;;;;;;11998934;28;20066;-77
2021/05/31 00:32:29;;;;;;;5.38;3.10;;;21.40;60.00;;;;;;11997976;28;20404;-78
2021/05/31 00:38:16;;;;;;;9.43;2.85;;;21.40;60.80;;;;;;11998599;28;20057;-77
2021/05/31 10:37:58;;;;;;;7.95;2.97;;;21.40;52.90;;;;;;12052272;27;20403;-76
2021/05/31 10:43:47;;;;;;;4.28;3.05;;;22.00;54.10;;;;;;12024795;28;20119;-77
2021/05/31 10:49:34;;;;;;;2.78;2.17;;;22.80;52.40;;;;;;12022491;28;20049;-76
2021/05/31 10:55:21;;;;;;;6.85;3.05;;;23.20;50.70;;;;;;12023782;28;20045;-77
2021/05/31 11:01:11;;;;;;;5.65;2.35;;;23.50;50.10;;;;;;12039777;28;20056;-77
2021/05/31 11:07:01;;;;;;;8.35;2.88;;;23.80;50.90;;;;;;12039495;28;20049;-76
2021/05/31 11:12:49;;;;;;;7.97;2.50;;;23.90;49.70;;;;;;12044942;28;20545;-76
2021/05/31 11:18:40;;;;;;;5.97;2.50;;;24.10;49.50;;;;;;12034524;28;20132;-76
2021/05/31 11:24:26;;;;;;;5.85;2.45;;;24.10;47.80;;;;;;12003890;28;20055;-76
2021/05/31 11:30:19;;;;;;;6.32;2.60;;;24.30;47.80;;;;;;11990274;28;20095;-77
2021/05/31 11:36:05;;;;;;;7.68;2.65;;;24.20;48.20;;;;;;11998291;28;20041;-76
2021/05/31 11:41:55;;;;;;;3.60;2.42;;;24.30;48.20;;;;;;11999820;28;20423;-77
2021/05/31 11:47:43;;;;;;;7.57;2.90;;;24.40;48.10;;;;;;11978824;28;20067;-77
2021/05/31 11:53:29;;;;;;;5.03;2.50;;;24.50;48.00;;;;;;11965920;28;20052;-76
2021/05/31 11:59:16;;;;;;;3.80;2.60;;;24.60;47.70;;;;;;11959523;28;20049;-78
2021/05/31 12:05:06;;;;;;;5.07;2.55;;;24.70;47.60;;;;;;11961447;28;20527;-77
2021/05/31 12:10:52;;;;;;;5.38;2.63;;;24.80;46.60;;;;;;11968741;28;20053;-77
2021/05/31 12:16:39;;;;;;;5.80;2.42;;;24.90;45.90;;;;;;11974345;28;20050;-76
2021/05/31 12:22:28;;;;;;;4.45;2.42;;;25.00;44.90;;;;;;11969114;28;20061;-76
2021/05/31 12:28:15;;;;;;;4.43;2.75;;;25.10;45.40;;;;;;11969115;28;20072;-77
2021/05/31 12:34:02;;;;;;;5.05;2.30;;;25.30;45.10;;;;;;11962675;28;20053;-77
2021/05/31 12:39:51;;;;;;;3.25;1.80;;;25.40;44.90;;;;;;11960123;28;21493;-77
2021/05/31 12:45:42;;;;;;;3.58;2.13;;;25.60;45.60;;;;;;11954226;28;20056;-77
2021/05/31 12:51:29;;;;;;;6.07;2.40;;;25.70;44.80;;;;;;11958019;28;20057;-77
2021/05/31 12:57:17;;;;;;;4.55;2.30;;;25.80;44.60;;;;;;11960040;28;20054;-78
2021/05/31 13:03:04;;;;;;;5.93;2.10;;;25.90;44.20;;;;;;11961176;28;20053;-78
2021/05/31 13:08:51;;;;;;;5.88;2.30;;;26.00;44.30;;;;;;11952626;28;20047;-77
2021/05/31 13:14:43;;;;;;;4.88;2.22;;;26.20;43.00;;;;;;11962394;28;20049;-77
2021/05/31 13:20:32;;;;;;;3.37;2.47;;;26.30;42.70;;;;;;11957974;28;20045;-77
2021/05/31 13:26:20;;;;;;;2.83;2.20;;;26.40;44.10;;;;;;11961677;28;20044;-78
2021/05/31 13:32:09;;;;;;;5.40;2.25;;;26.50;44.00;;;;;;11956160;28;20079;-78
2021/05/31 13:37:57;;;;;;;6.78;2.42;;;26.70;43.20;;;;;;11909615;28;20074;-78
2021/05/31 13:43:52;;;;;;;5.05;2.28;;;26.80;43.30;;;;;;11904937;28;20053;-78
2021/05/31 13:49:40;;;;;;;2.75;2.00;;;26.80;42.80;;;;;;11917602;28;20555;-78
2021/05/31 13:55:27;;;;;;;6.38;2.10;;;27.00;41.70;;;;;;11901999;28;20050;-77
2021/05/31 14:01:14;;;;;;;3.17;1.98;;;27.00;41.50;;;;;;11900241;28;20065;-77
2021/05/31 14:07:01;;;;;;;7.57;2.30;;;27.10;41.10;;;;;;11910168;28;20050;-77
2021/05/31 14:12:48;;;;;;;3.22;2.10;;;27.20;41.10;;;;;;11862447;28;20081;-78
2021/05/31 14:18:34;;;;;;;4.30;2.22;;;27.30;41.70;;;;;;11890351;28;20061;-78
2021/05/31 14:24:23;;;;;;;6.05;1.90;;;27.30;42.20;;;;;;11887345;28;20054;-78
2021/05/31 14:30:11;;;;;;;3.53;2.17;;;27.40;41.40;;;;;;11871023;28;20046;-79
2021/05/31 14:35:58;;;;;;;7.05;2.05;;;27.60;41.40;;;;;;11874198;28;20054;-79
2021/05/31 14:41:45;;;;;;;4.00;2.10;;;27.60;41.40;;;;;;11902095;28;20046;-78
2021/05/31 14:47:32;;;;;;;6.90;2.28;;;27.60;42.10;;;;;;11911986;28;20092;-77
2021/05/31 14:53:19;;;;;;;4.88;1.98;;;27.70;41.20;;;;;;11911306;28;20704;-77
2021/05/31 14:59:07;;;;;;;4.32;2.13;;;27.80;43.00;;;;;;11951374;28;20055;-76
2021/05/31 15:04:53;;;;;;;2.20;1.95;;;27.80;41.80;;;;;;11953820;28;20057;-78
2021/05/31 15:10:39;;;;;;;3.28;1.88;;;27.90;42.00;;;;;;11935550;28;20073;-78
2021/05/31 15:16:29;;;;;;;2.42;1.92;;;28.00;42.50;;;;;;11904545;28;20050;-79
2021/05/31 15:22:16;;;;;;;6.68;2.03;;;28.10;41.80;;;;;;11935765;28;20053;-81
2021/05/31 15:28:03;;;;;;;5.22;2.10;;;28.30;41.10;;;;;;11955518;28;20056;-79
2021/05/31 15:33:50;;;;;;;4.80;2.10;;;28.60;40.90;;;;;;11955568;28;20072;-80
2021/05/31 15:39:38;;;;;;;5.65;2.28;;;29.70;39.60;;;;;;11956058;28;20436;-79
2021/05/31 15:45:25;;;;;;;6.28;1.85;;;31.00;38.60;;;;;;11964705;28;21441;-81
2021/05/31 15:51:17;;;;;;;3.22;1.77;;;32.40;36.50;;;;;;11960745;28;20061;-79
2021/05/31 15:57:05;;;;;;;2.57;1.80;;;33.50;35.50;;;;;;11965863;28;20049;-79
2021/05/31 16:02:52;;;;;;;2.83;1.65;;;34.70;33.90;;;;;;11956167;28;20066;-80
2021/05/31 16:08:40;;;;;;;3.95;1.58;;;35.30;32.60;;;;;;11957168;28;20049;-79
2021/05/31 16:14:26;;;;;;;4.13;1.80;;;36.10;32.30;;;;;;11959750;28;20487;-80
2021/05/31 16:20:13;;;;;;;3.35;1.70;;;36.40;32.00;;;;;;11949143;28;20053;-80
2021/05/31 16:26:01;;;;;;;1.60;1.50;;;36.90;31.00;;;;;;11963740;28;20045;-81
2021/05/31 16:31:47;;;;;;;2.22;1.80;;;37.50;30.80;;;;;;11957203;28;20131;-79
2021/05/31 16:37:34;;;;;;;4.05;1.50;;;37.90;31.00;;;;;;11956275;28;20512;-81
2021/05/31 16:43:22;;;;;;;4.53;1.90;;;38.60;30.10;;;;;;11960700;28;20046;-81
2021/05/31 16:49:08;;;;;;;2.40;1.85;;;39.40;29.80;;;;;;11955260;28;20157;-81
2021/05/31 16:54:55;;;;;;;4.68;2.00;;;39.90;28.80;;;;;;11951266;28;20080;-80
2021/05/31 17:00:43;;;;;;;2.90;1.70;;;40.50;28.00;;;;;;11951595;28;20397;-80
2021/05/31 17:06:33;;;;;;;3.05;1.65;;;41.10;27.60;;;;;;11955804;28;20049;-80
2021/05/31 17:24:29;;;;;;;7.13;2.22;;;42.60;26.70;;;;;;11945843;28;20132;-80
2021/05/31 17:30:22;;;;;;;12.45;1.90;;;42.90;26.30;;;;;;11960493;28;20424;-81
2021/05/31 17:36:10;;;;;;;8.63;2.80;;;43.20;26.00;;;;;;11949427;28;20436;-79
2021/05/31 17:41:56;;;;;;;5.93;2.50;;;43.10;25.70;;;;;;11954717;28;20053;-79
2021/05/31 17:47:43;;;;;;;5.60;1.70;;;43.30;25.80;;;;;;11953433;28;20065;-81
2021/05/31 17:53:31;;;;;;;5.13;1.70;;;43.40;25.30;;;;;;11956628;28;20124;-81
2021/05/31 17:59:18;;;;;;;3.70;2.03;;;43.20;25.20;;;;;;11951291;28;20041;-81
2021/05/31 18:05:06;;;;;;;3.50;1.90;;;43.00;25.70;;;;;;11954774;28;20049;-82
2021/05/31 18:10:54;;;;;;;4.72;1.98;;;42.70;25.60;;;;;;11971059;28;20073;-81
2021/05/31 18:16:41;;;;;;;2.70;1.52;;;42.10;25.50;;;;;;11950870;28;20080;-81
2021/05/31 18:22:29;;;;;;;4.80;2.47;;;42.00;25.60;;;;;;11949529;28;20073;-82
2021/05/31 18:28:17;;;;;;;6.18;1.90;;;42.00;25.30;;;;;;11957284;28;20057;-80
2021/05/31 18:34:08;;;;;;;8.23;2.30;;;41.60;25.80;;;;;;11967817;28;20057;-80
2021/05/31 18:39:55;;;;;;;5.22;2.22;;;40.80;26.30;;;;;;11952508;28;20049;-81
2021/05/31 18:45:44;;;;;;;5.32;1.98;;;40.30;26.50;;;;;;11946082;28;20366;-82
2021/05/31 18:51:30;;;;;;;5.18;2.13;;;39.60;27.00;;;;;;11940424;28;20063;-81
2021/05/31 18:57:17;;;;;;;4.13;2.20;;;39.10;27.50;;;;;;11959358;28;20049;-82
2021/05/31 19:03:06;;;;;;;6.15;2.60;;;38.30;28.10;;;;;;11957262;28;20715;-80
2021/05/31 19:08:52;;;;;;;5.28;2.40;;;37.40;29.00;;;;;;11967540;28;20137;-81
2021/05/31 19:14:41;;;;;;;6.72;1.90;;;34.90;30.40;;;;;;11954752;28;20541;-81
2021/05/31 19:20:29;;;;;;;6.60;2.20;;;32.60;32.50;;;;;;11988919;28;20054;-80
2021/05/31 19:26:16;;;;;;;4.50;2.20;;;31.00;35.00;;;;;;11970609;28;20063;-80
2021/05/31 19:32:03;;;;;;;6.32;2.65;;;29.80;38.10;;;;;;11959106;28;20064;-81
2021/05/31 19:37:51;;;;;;;7.78;2.75;;;28.90;39.70;;;;;;11957247;28;20431;-80
2021/05/31 19:43:37;;;;;;;8.95;2.80;;;28.30;41.90;;;;;;11961674;28;20041;-81
2021/05/31 19:49:24;;;;;;;10.25;2.70;;;27.70;43.10;;;;;;11953925;28;20083;-81
2021/05/31 20:01:15;;;;;;;4.38;2.78;;;26.90;45.60;;;;;;11958167;28;20451;-81
2021/05/31 20:07:03;;;;;;;8.38;2.30;;;26.70;45.70;;;;;;11942657;28;20535;-80
2021/05/31 20:12:52;;;;;;;6.95;2.03;;;26.40;45.80;;;;;;11950634;28;20423;-82
2021/05/31 20:18:38;;;;;;;9.15;2.30;;;26.10;46.30;;;;;;11960764;28;20037;-81
2021/05/31 20:24:24;;;;;;;7.55;2.70;;;25.80;45.90;;;;;;11959687;28;20053;-81
2021/05/31 20:30:17;;;;;;;5.85;2.42;;;25.60;46.60;;;;;;11955522;28;20080;-82
2021/05/31 20:36:05;;;;;;;6.07;2.23;;;25.40;46.90;;;;;;11954753;28;20146;-81
2021/05/31 20:41:51;;;;;;;7.35;2.53;;;25.10;47.30;;;;;;11954161;28;20387;-82
2021/05/31 20:47:40;;;;;;;3.33;2.17;;;24.90;48.20;;;;;;11955016;28;20057;-81
2021/05/31 20:53:26;;;;;;;7.20;2.50;;;24.70;49.00;;;;;;11956975;28;20476;-82
2021/05/31 20:59:13;;;;;;;5.15;2.45;;;24.50;49.30;;;;;;11960596;28;20496;-82
2021/05/31 21:05:01;;;;;;;7.50;2.40;;;24.30;50.10;;;;;;11952095;28;20061;-80
2021/05/31 21:10:52;;;;;;;5.72;2.58;;;24.20;50.40;;;;;;11958093;28;20103;-81
2021/05/31 21:16:38;;;;;;;10.27;2.85;;;24.20;50.60;;;;;;11953700;28;20056;-82
2021/05/31 21:22:32;;;;;;;6.28;2.80;;;24.00;51.20;;;;;;11960719;28;20226;-83
2021/05/31 21:28:19;;;;;;;4.50;2.65;;;23.90;51.70;;;;;;11952596;28;20530;-82
2021/05/31 21:34:06;;;;;;;5.03;2.63;;;23.80;51.60;;;;;;11939485;28;20060;-80
2021/05/31 21:39:54;;;;;;;8.73;3.00;;;23.80;52.10;;;;;;11955784;28;20072;-81
2021/05/31 21:45:41;;;;;;;6.40;2.45;;;23.60;52.30;;;;;;11959049;28;20520;-82
2021/05/31 21:51:29;;;;;;;5.78;2.47;;;23.60;52.40;;;;;;11960634;28;20700;-82
2021/05/31 21:57:17;;;;;;;6.22;2.70;;;23.40;52.50;;;;;;11957552;28;20085;-81
2021/05/31 22:03:06;;;;;;;5.15;2.70;;;23.40;52.70;;;;;;11937730;28;20048;-79
2021/05/31 22:08:52;;;;;;;7.50;2.88;;;23.30;52.60;;;;;;11954397;28;20069;-78
2021/05/31 22:14:40;;;;;;;5.22;2.33;;;23.20;52.60;;;;;;11952648;28;20066;-78
2021/05/31 22:20:29;;;;;;;5.28;2.30;;;23.10;53.30;;;;;;11948349;28;20099;-78
2021/05/31 22:26:18;;;;;;;3.80;2.40;;;23.00;53.10;;;;;;11954062;28;20060;-79
2021/05/31 22:32:09;;;;;;;3.67;2.47;;;22.80;53.70;;;;;;11965482;28;21174;-79
2021/05/31 22:37:56;;;;;;;3.85;2.38;;;22.70;53.80;;;;;;11951453;28;20053;-79
2021/05/31 23:02:24;;;;;;;6.85;2.67;;;22.60;53.90;;;;;;12117950;27;20799;-80
2021/05/31 23:14:18;;;;;;;9.95;2.85;;;22.60;55.10;;;;;;12061036;27;20037;-78
2021/05/31 23:20:07;;;;;;;9.10;3.50;;;22.50;55.90;;;;;;12076042;28;20081;-78
2021/05/31 23:25:54;;;;;;;9.30;3.58;;;22.40;56.40;;;;;;12034882;28;20052;-78
2021/05/31 23:31:40;;;;;;;10.95;4.00;;;22.30;56.60;;;;;;12016967;28;20057;-78
2021/05/31 23:37:29;;;;;;;15.98;3.85;;;22.30;56.80;;;;;;12038791;28;20486;-78
2021/05/31 23:43:16;;;;;;;21.38;4.68;;;22.20;56.80;;;;;;12033987;28;20067;-78
2021/05/31 23:49:03;;;;;;;10.85;3.60;;;22.20;57.50;;;;;;12080790;28;20068;-78
2021/05/31 23:54:51;;;;;;;11.57;3.88;;;22.10;57.90;;;;;;12043812;28;20059;-79
